sensor_id;sensor_type;location;lat;lon;timestamp;P1;durP1;ratioP1;P2;durP2;ratioP2
10154;SDS011;5118;48.570;7.916;2023-10-09T00:00:24;15.93;;;5.93;;
10154;SDS011;5118;48.570;7.916;2023-10-09T00:03:18;14.60;;;6.57;;
10154;SDS011;5118;48.570;7.916;2023-10-09T00:05:49;18.97;;;7.30;;
10154;SDS011;5118;48.570;7.916;2023-10-09T00:08:20;20.13;;;7.87;;
10154;SDS011;5118;48.570;7.916;2023-10-09T00:10:58;15.37;;;7.13;;
10154;SDS011;5118;48.570;7.916;2023-10-09T00:13:41;15.87;;;6.50;;
10154;SDS011;5118;48.570;7.916;2023-10-09T00:16:16;17.80;;;7.10;;
10154;SDS011;5118;48.570;7.916;2023-10-09T00:18:49;16.60;;;7.00;;
10154;SDS011;5118;48.570;7.916;2023-10-09T00:21:20;14.27;;;6.50;;
10154;SDS011;5118;48.570;7.916;2023-10-09T00:23:50;18.77;;;7.17;;
10154;SDS011;5118;48.570;7.916;2023-10-09T00:26:24;12.97;;;6.20;;
10154;SDS011;5118;48.570;7.916;2023-10-09T00:28:55;15.10;;;6.60;;
10154;SDS011;5118;48.570;7.916;2023-10-09T00:31:24;16.47;;;6.83;;
10154;SDS011;5118;48.570;7.916;2023-10-09T00:33:57;13.50;;;6.83;;
10154;SDS011;5118;48.570;7.916;2023-10-09T00:36:34;12.03;;;6.67;;
10154;SDS011;5118;48.570;7.916;2023-10-09T00:39:17;13.03;;;6.23;;
10154;SDS011;5118;48.570;7.916;2023-10-09T00:42:01;17.70;;;7.00;;
10154;SDS011;5118;48.570;7.916;2023-10-09T00:44:33;15.20;;;6.80;;
10154;SDS011;5118;48.570;7.916;2023-10-09T00:47:06;19.40;;;6.60;;
10154;SDS011;5118;48.570;7.916;2023-10-09T00:49:49;20.90;;;7.10;;
10154;SDS011;5118;48.570;7.916;2023-10-09T00:52:29;19.53;;;7.47;;
10154;SDS011;5118;48.570;7.916;2023-10-09T00:55:06;19.77;;;7.57;;
10154;SDS011;5118;48.570;7.916;2023-10-09T00:57:43;19.17;;;7.97;;
10154;SDS011;5118;48.570;7.916;2023-10-09T01:00:23;21.77;;;8.03;;
10154;SDS011;5118;48.570;7.916;2023-10-09T01:03:00;19.30;;;7.07;;
10154;SDS011;5118;48.570;7.916;2023-10-09T01:05:47;15.67;;;7.13;;
10154;SDS011;5118;48.570;7.916;2023-10-09T01:08:25;19.13;;;8.23;;
10154;SDS011;5118;48.570;7.916;2023-10-09T01:10:57;17.97;;;7.70;;
10154;SDS011;5118;48.570;7.916;2023-10-09T01:13:38;19.63;;;8.20;;
10154;SDS011;5118;48.570;7.916;2023-10-09T01:16:20;19.33;;;8.23;;
10154;SDS011;5118;48.570;7.916;2023-10-09T01:18:50;19.17;;;8.00;;
10154;SDS011;5118;48.570;7.916;2023-10-09T01:21:19;22.80;;;7.57;;
10154;SDS011;5118;48.570;7.916;2023-10-09T01:23:53;20.40;;;7.67;;
10154;SDS011;5118;48.570;7.916;2023-10-09T01:26:38;20.67;;;6.97;;
10154;SDS011;5118;48.570;7.916;2023-10-09T01:29:12;18.50;;;7.33;;
10154;SDS011;5118;48.570;7.916;2023-10-09T01:31:46;14.30;;;6.53;;
10154;SDS011;5118;48.570;7.916;2023-10-09T01:34:22;14.70;;;6.90;;
10154;SDS011;5118;48.570;7.916;2023-10-09T01:36:53;17.87;;;6.07;;
10154;SDS011;5118;48.570;7.916;2023-10-09T01:39:24;15.00;;;5.83;;
10154;SDS011;5118;48.570;7.916;2023-10-09T01:41:55;12.63;;;5.83;;
10154;SDS011;5118;48.570;7.916;2023-10-09T01:44:28;12.43;;;5.50;;
10154;SDS011;5118;48.570;7.916;2023-10-09T01:47:01;12.13;;;5.77;;
10154;SDS011;5118;48.570;7.916;2023-10-09T01:49:34;12.80;;;6.50;;
10154;SDS011;5118;48.570;7.916;2023-10-09T01:52:04;15.33;;;5.63;;
10154;SDS011;5118;48.570;7.916;2023-10-09T01:54:37;15.27;;;5.67;;
10154;SDS011;5118;48.570;7.916;2023-10-09T01:57:07;13.40;;;5.53;;
10154;SDS011;5118;48.570;7.916;2023-10-09T01:59:40;15.07;;;5.70;;
10154;SDS011;5118;48.570;7.916;2023-10-09T02:02:12;13.63;;;5.97;;
10154;SDS011;5118;48.570;7.916;2023-10-09T02:04:54;11.17;;;5.53;;
10154;SDS011;5118;48.570;7.916;2023-10-09T02:07:33;12.90;;;6.37;;
10154;SDS011;5118;48.570;7.916;2023-10-09T02:10:10;16.17;;;5.87;;
10154;SDS011;5118;48.570;7.916;2023-10-09T02:12:52;19.53;;;6.67;;
10154;SDS011;5118;48.570;7.916;2023-10-09T02:15:25;14.23;;;6.40;;
10154;SDS011;5118;48.570;7.916;2023-10-09T02:18:19;14.00;;;6.20;;
10154;SDS011;5118;48.570;7.916;2023-10-09T02:21:07;12.40;;;6.20;;
10154;SDS011;5118;48.570;7.916;2023-10-09T02:23:42;17.50;;;6.90;;
10154;SDS011;5118;48.570;7.916;2023-10-09T02:26:18;16.47;;;6.80;;
10154;SDS011;5118;48.570;7.916;2023-10-09T02:28:53;14.53;;;6.90;;
10154;SDS011;5118;48.570;7.916;2023-10-09T02:31:27;12.20;;;7.00;;
10154;SDS011;5118;48.570;7.916;2023-10-09T02:34:03;20.97;;;7.60;;
10154;SDS011;5118;48.570;7.916;2023-10-09T02:36:39;21.63;;;7.30;;
10154;SDS011;5118;48.570;7.916;2023-10-09T02:39:15;19.70;;;7.53;;
10154;SDS011;5118;48.570;7.916;2023-10-09T02:41:52;20.23;;;7.17;;
10154;SDS011;5118;48.570;7.916;2023-10-09T02:44:25;16.57;;;7.40;;
10154;SDS011;5118;48.570;7.916;2023-10-09T02:47:01;24.07;;;7.40;;
10154;SDS011;5118;48.570;7.916;2023-10-09T02:49:34;16.63;;;7.57;;
10154;SDS011;5118;48.570;7.916;2023-10-09T02:52:04;15.60;;;6.60;;
10154;SDS011;5118;48.570;7.916;2023-10-09T02:54:34;16.27;;;6.43;;
10154;SDS011;5118;48.570;7.916;2023-10-09T02:57:09;13.30;;;6.40;;
10154;SDS011;5118;48.570;7.916;2023-10-09T02:59:43;17.70;;;7.30;;
10154;SDS011;5118;48.570;7.916;2023-10-09T03:02:12;15.93;;;6.60;;
10154;SDS011;5118;48.570;7.916;2023-10-09T03:04:40;19.20;;;6.50;;
10154;SDS011;5118;48.570;7.916;2023-10-09T03:07:09;16.23;;;6.40;;
10154;SDS011;5118;48.570;7.916;2023-10-09T03:09:40;19.30;;;6.37;;
10154;SDS011;5118;48.570;7.916;2023-10-09T03:12:10;19.47;;;6.10;;
10154;SDS011;5118;48.570;7.916;2023-10-09T03:14:40;15.93;;;6.70;;
10154;SDS011;5118;48.570;7.916;2023-10-09T03:17:09;16.60;;;6.50;;
10154;SDS011;5118;48.570;7.916;2023-10-09T03:19:39;21.93;;;6.50;;
10154;SDS011;5118;48.570;7.916;2023-10-09T03:22:10;18.10;;;6.43;;
10154;SDS011;5118;48.570;7.916;2023-10-09T03:24:39;16.63;;;6.50;;
10154;SDS011;5118;48.570;7.916;2023-10-09T03:27:19;16.63;;;6.63;;
10154;SDS011;5118;48.570;7.916;2023-10-09T03:29:48;14.73;;;6.80;;
10154;SDS011;5118;48.570;7.916;2023-10-09T03:32:20;17.40;;;6.40;;
10154;SDS011;5118;48.570;7.916;2023-10-09T03:34:49;18.10;;;6.40;;
10154;SDS011;5118;48.570;7.916;2023-10-09T03:37:18;19.50;;;6.67;;
10154;SDS011;5118;48.570;7.916;2023-10-09T03:40:01;16.20;;;6.57;;
10154;SDS011;5118;48.570;7.916;2023-10-09T03:42:36;14.93;;;7.00;;
10154;SDS011;5118;48.570;7.916;2023-10-09T03:45:08;17.73;;;6.27;;
10154;SDS011;5118;48.570;7.916;2023-10-09T03:47:52;15.17;;;6.10;;
10154;SDS011;5118;48.570;7.916;2023-10-09T03:50:24;18.27;;;6.37;;
10154;SDS011;5118;48.570;7.916;2023-10-09T03:53:03;18.63;;;7.10;;
10154;SDS011;5118;48.570;7.916;2023-10-09T03:55:34;21.30;;;7.77;;
10154;SDS011;5118;48.570;7.916;2023-10-09T03:58:06;21.63;;;7.90;;
10154;SDS011;5118;48.570;7.916;2023-10-09T04:00:38;20.80;;;6.53;;
10154;SDS011;5118;48.570;7.916;2023-10-09T04:03:12;17.03;;;8.00;;
10154;SDS011;5118;48.570;7.916;2023-10-09T04:05:42;20.20;;;8.50;;
10154;SDS011;5118;48.570;7.916;2023-10-09T04:08:11;19.73;;;7.73;;
10154;SDS011;5118;48.570;7.916;2023-10-09T04:10:47;21.30;;;7.70;;
10154;SDS011;5118;48.570;7.916;2023-10-09T04:13:30;19.23;;;7.23;;
10154;SDS011;5118;48.570;7.916;2023-10-09T04:16:03;19.47;;;6.57;;
10154;SDS011;5118;48.570;7.916;2023-10-09T04:18:55;18.83;;;7.17;;
10154;SDS011;5118;48.570;7.916;2023-10-09T04:21:24;16.83;;;6.80;;
10154;SDS011;5118;48.570;7.916;2023-10-09T04:24:01;19.97;;;6.90;;
10154;SDS011;5118;48.570;7.916;2023-10-09T04:26:49;18.90;;;7.43;;
10154;SDS011;5118;48.570;7.916;2023-10-09T04:29:26;19.80;;;8.13;;
10154;SDS011;5118;48.570;7.916;2023-10-09T04:31:57;25.33;;;8.50;;
10154;SDS011;5118;48.570;7.916;2023-10-09T04:34:27;17.00;;;7.80;;
10154;SDS011;5118;48.570;7.916;2023-10-09T04:37:01;20.10;;;7.53;;
10154;SDS011;5118;48.570;7.916;2023-10-09T04:39:46;20.77;;;7.27;;
10154;SDS011;5118;48.570;7.916;2023-10-09T04:42:27;22.60;;;7.40;;
10154;SDS011;5118;48.570;7.916;2023-10-09T04:45:06;19.30;;;7.10;;
10154;SDS011;5118;48.570;7.916;2023-10-09T04:48:07;24.63;;;7.67;;
10154;SDS011;5118;48.570;7.916;2023-10-09T04:50:37;20.97;;;7.10;;
10154;SDS011;5118;48.570;7.916;2023-10-09T04:53:35;18.70;;;6.73;;
10154;SDS011;5118;48.570;7.916;2023-10-09T04:56:11;15.77;;;6.70;;
10154;SDS011;5118;48.570;7.916;2023-10-09T04:58:43;21.43;;;8.23;;
10154;SDS011;5118;48.570;7.916;2023-10-09T05:01:14;18.37;;;7.53;;
10154;SDS011;5118;48.570;7.916;2023-10-09T05:04:03;22.53;;;7.77;;
10154;SDS011;5118;48.570;7.916;2023-10-09T05:06:52;25.63;;;7.50;;
10154;SDS011;5118;48.570;7.916;2023-10-09T05:09:23;19.17;;;7.43;;
10154;SDS011;5118;48.570;7.916;2023-10-09T05:11:52;19.40;;;7.37;;
10154;SDS011;5118;48.570;7.916;2023-10-09T05:14:37;16.90;;;6.67;;
10154;SDS011;5118;48.570;7.916;2023-10-09T05:17:16;23.40;;;7.10;;
10154;SDS011;5118;48.570;7.916;2023-10-09T05:19:43;18.43;;;7.27;;
10154;SDS011;5118;48.570;7.916;2023-10-09T05:22:43;20.97;;;6.60;;
10154;SDS011;5118;48.570;7.916;2023-10-09T05:25:24;18.57;;;6.77;;
10154;SDS011;5118;48.570;7.916;2023-10-09T05:28:11;19.57;;;6.73;;
10154;SDS011;5118;48.570;7.916;2023-10-09T05:30:57;15.30;;;6.40;;
10154;SDS011;5118;48.570;7.916;2023-10-09T05:33:37;21.90;;;6.90;;
10154;SDS011;5118;48.570;7.916;2023-10-09T05:36:12;17.97;;;6.70;;
10154;SDS011;5118;48.570;7.916;2023-10-09T05:38:58;22.30;;;6.77;;
10154;SDS011;5118;48.570;7.916;2023-10-09T05:41:45;23.20;;;7.17;;
10154;SDS011;5118;48.570;7.916;2023-10-09T05:44:14;20.97;;;7.73;;
10154;SDS011;5118;48.570;7.916;2023-10-09T05:46:57;17.50;;;6.97;;
10154;SDS011;5118;48.570;7.916;2023-10-09T05:50:16;25.23;;;7.90;;
10154;SDS011;5118;48.570;7.916;2023-10-09T05:53:04;24.57;;;7.40;;
10154;SDS011;5118;48.570;7.916;2023-10-09T05:55:34;21.50;;;7.27;;
10154;SDS011;5118;48.570;7.916;2023-10-09T05:58:32;17.00;;;6.90;;
10154;SDS011;5118;48.570;7.916;2023-10-09T06:01:18;21.27;;;7.23;;
10154;SDS011;5118;48.570;7.916;2023-10-09T06:04:04;22.40;;;6.77;;
10154;SDS011;5118;48.570;7.916;2023-10-09T06:06:43;19.27;;;7.40;;
10154;SDS011;5118;48.570;7.916;2023-10-09T06:09:13;22.40;;;7.00;;
10154;SDS011;5118;48.570;7.916;2023-10-09T06:12:11;21.17;;;7.80;;
10154;SDS011;5118;48.570;7.916;2023-10-09T06:14:57;20.63;;;6.80;;
10154;SDS011;5118;48.570;7.916;2023-10-09T06:17:45;23.30;;;8.00;;
10154;SDS011;5118;48.570;7.916;2023-10-09T06:20:17;24.30;;;7.77;;
10154;SDS011;5118;48.570;7.916;2023-10-09T06:23:04;23.97;;;7.57;;
10154;SDS011;5118;48.570;7.916;2023-10-09T06:25:43;23.53;;;7.77;;
10154;SDS011;5118;48.570;7.916;2023-10-09T06:28:18;17.67;;;7.13;;
10154;SDS011;5118;48.570;7.916;2023-10-09T06:30:59;22.03;;;7.53;;
10154;SDS011;5118;48.570;7.916;2023-10-09T06:33:49;27.20;;;7.83;;
10154;SDS011;5118;48.570;7.916;2023-10-09T06:36:34;22.17;;;7.57;;
10154;SDS011;5118;48.570;7.916;2023-10-09T06:39:09;17.20;;;6.40;;
10154;SDS011;5118;48.570;7.916;2023-10-09T06:41:51;22.93;;;7.13;;
10154;SDS011;5118;48.570;7.916;2023-10-09T06:44:37;23.13;;;7.17;;
10154;SDS011;5118;48.570;7.916;2023-10-09T06:47:28;19.33;;;6.27;;
10154;SDS011;5118;48.570;7.916;2023-10-09T06:50:03;22.97;;;6.63;;
10154;SDS011;5118;48.570;7.916;2023-10-09T06:52:51;19.80;;;6.57;;
10154;SDS011;5118;48.570;7.916;2023-10-09T06:55:49;17.33;;;7.00;;
10154;SDS011;5118;48.570;7.916;2023-10-09T06:58:18;27.60;;;6.60;;
10154;SDS011;5118;48.570;7.916;2023-10-09T07:00:52;21.40;;;6.57;;
10154;SDS011;5118;48.570;7.916;2023-10-09T07:03:44;35.13;;;7.53;;
10154;SDS011;5118;48.570;7.916;2023-10-09T07:06:27;25.33;;;7.27;;
10154;SDS011;5118;48.570;7.916;2023-10-09T07:09:28;22.07;;;6.93;;
10154;SDS011;5118;48.570;7.916;2023-10-09T07:12:09;15.67;;;6.27;;
10154;SDS011;5118;48.570;7.916;2023-10-09T07:14:41;18.93;;;6.50;;
10154;SDS011;5118;48.570;7.916;2023-10-09T07:17:49;17.63;;;6.30;;
10154;SDS011;5118;48.570;7.916;2023-10-09T07:20:19;15.20;;;5.73;;
10154;SDS011;5118;48.570;7.916;2023-10-09T07:23:12;18.20;;;6.20;;
10154;SDS011;5118;48.570;7.916;2023-10-09T07:25:46;18.87;;;5.87;;
10154;SDS011;5118;48.570;7.916;2023-10-09T07:28:25;24.47;;;6.47;;
10154;SDS011;5118;48.570;7.916;2023-10-09T07:31:16;18.53;;;5.60;;
10154;SDS011;5118;48.570;7.916;2023-10-09T07:33:51;21.93;;;5.83;;
10154;SDS011;5118;48.570;7.916;2023-10-09T07:36:24;19.93;;;6.00;;
10154;SDS011;5118;48.570;7.916;2023-10-09T07:39:05;18.97;;;5.43;;
10154;SDS011;5118;48.570;7.916;2023-10-09T07:41:45;17.03;;;5.97;;
10154;SDS011;5118;48.570;7.916;2023-10-09T07:44:29;20.00;;;5.63;;
10154;SDS011;5118;48.570;7.916;2023-10-09T07:47:10;17.63;;;6.13;;
10154;SDS011;5118;48.570;7.916;2023-10-09T07:49:44;18.60;;;6.00;;
10154;SDS011;5118;48.570;7.916;2023-10-09T07:52:20;20.70;;;6.33;;
10154;SDS011;5118;48.570;7.916;2023-10-09T07:54:49;21.57;;;6.10;;
10154;SDS011;5118;48.570;7.916;2023-10-09T07:57:22;18.67;;;5.70;;
10154;SDS011;5118;48.570;7.916;2023-10-09T07:59:56;19.77;;;5.83;;
10154;SDS011;5118;48.570;7.916;2023-10-09T08:02:39;17.87;;;5.53;;
10154;SDS011;5118;48.570;7.916;2023-10-09T08:05:08;17.20;;;6.10;;
10154;SDS011;5118;48.570;7.916;2023-10-09T08:07:46;15.77;;;5.57;;
10154;SDS011;5118;48.570;7.916;2023-10-09T08:11:01;18.80;;;5.97;;
10154;SDS011;5118;48.570;7.916;2023-10-09T08:13:48;18.70;;;6.40;;
10154;SDS011;5118;48.570;7.916;2023-10-09T08:16:23;17.50;;;5.67;;
10154;SDS011;5118;48.570;7.916;2023-10-09T08:19:03;15.30;;;5.10;;
10154;SDS011;5118;48.570;7.916;2023-10-09T08:21:55;16.97;;;5.30;;
10154;SDS011;5118;48.570;7.916;2023-10-09T08:24:44;16.35;;;5.63;;
10154;SDS011;5118;48.570;7.916;2023-10-09T08:27:23;17.27;;;5.55;;
10154;SDS011;5118;48.570;7.916;2023-10-09T08:30:15;18.45;;;5.20;;
10154;SDS011;5118;48.570;7.916;2023-10-09T08:32:55;17.00;;;5.30;;
10154;SDS011;5118;48.570;7.916;2023-10-09T08:35:40;16.73;;;5.18;;
10154;SDS011;5118;48.570;7.916;2023-10-09T08:38:15;19.55;;;5.20;;
10154;SDS011;5118;48.570;7.916;2023-10-09T08:40:50;14.50;;;5.00;;
10154;SDS011;5118;48.570;7.916;2023-10-09T08:43:26;16.38;;;4.88;;
10154;SDS011;5118;48.570;7.916;2023-10-09T08:45:59;21.48;;;5.18;;
10154;SDS011;5118;48.570;7.916;2023-10-09T08:48:29;15.23;;;4.78;;
10154;SDS011;5118;48.570;7.916;2023-10-09T08:50:58;14.05;;;4.78;;
10154;SDS011;5118;48.570;7.916;2023-10-09T08:53:33;20.60;;;5.15;;
10154;SDS011;5118;48.570;7.916;2023-10-09T08:56:01;13.65;;;4.50;;
10154;SDS011;5118;48.570;7.916;2023-10-09T08:58:31;12.15;;;4.63;;
10154;SDS011;5118;48.570;7.916;2023-10-09T09:01:05;19.50;;;4.65;;
10154;SDS011;5118;48.570;7.916;2023-10-09T09:03:37;14.60;;;5.00;;
10154;SDS011;5118;48.570;7.916;2023-10-09T09:06:10;12.88;;;4.80;;
10154;SDS011;5118;48.570;7.916;2023-10-09T09:08:42;15.45;;;4.75;;
10154;SDS011;5118;48.570;7.916;2023-10-09T09:11:12;19.10;;;5.22;;
10154;SDS011;5118;48.570;7.916;2023-10-09T09:13:44;13.27;;;4.80;;
10154;SDS011;5118;48.570;7.916;2023-10-09T09:16:18;17.33;;;4.47;;
10154;SDS011;5118;48.570;7.916;2023-10-09T09:18:48;18.83;;;4.75;;
10154;SDS011;5118;48.570;7.916;2023-10-09T09:21:30;12.32;;;4.95;;
10154;SDS011;5118;48.570;7.916;2023-10-09T09:24:05;19.45;;;4.85;;
10154;SDS011;5118;48.570;7.916;2023-10-09T09:26:54;16.20;;;4.35;;
10154;SDS011;5118;48.570;7.916;2023-10-09T09:29:38;15.93;;;5.10;;
10154;SDS011;5118;48.570;7.916;2023-10-09T09:32:11;14.40;;;4.15;;
10154;SDS011;5118;48.570;7.916;2023-10-09T09:34:44;17.25;;;4.88;;
10154;SDS011;5118;48.570;7.916;2023-10-09T09:37:19;16.02;;;4.45;;
10154;SDS011;5118;48.570;7.916;2023-10-09T09:39:48;12.27;;;4.57;;
10154;SDS011;5118;48.570;7.916;2023-10-09T09:42:21;17.27;;;4.63;;
10154;SDS011;5118;48.570;7.916;2023-10-09T09:44:54;15.85;;;4.30;;
10154;SDS011;5118;48.570;7.916;2023-10-09T09:47:25;13.65;;;4.50;;
10154;SDS011;5118;48.570;7.916;2023-10-09T09:49:55;18.05;;;4.90;;
10154;SDS011;5118;48.570;7.916;2023-10-09T09:52:28;17.02;;;4.60;;
10154;SDS011;5118;48.570;7.916;2023-10-09T09:55:07;15.88;;;4.93;;
10154;SDS011;5118;48.570;7.916;2023-10-09T09:57:41;14.82;;;4.55;;
10154;SDS011;5118;48.570;7.916;2023-10-09T10:00:20;14.27;;;4.78;;
10154;SDS011;5118;48.570;7.916;2023-10-09T10:03:07;17.92;;;4.75;;
10154;SDS011;5118;48.570;7.916;2023-10-09T10:05:39;15.55;;;4.35;;
10154;SDS011;5118;48.570;7.916;2023-10-09T10:08:14;15.05;;;4.50;;
10154;SDS011;5118;48.570;7.916;2023-10-09T10:10:46;15.93;;;4.43;;
10154;SDS011;5118;48.570;7.916;2023-10-09T10:13:17;16.65;;;5.00;;
10154;SDS011;5118;48.570;7.916;2023-10-09T10:15:58;11.88;;;4.40;;
10154;SDS011;5118;48.570;7.916;2023-10-09T10:21:34;18.90;;;4.68;;
10154;SDS011;5118;48.570;7.916;2023-10-09T10:27:22;16.55;;;4.85;;
10154;SDS011;5118;48.570;7.916;2023-10-09T10:32:57;9.18;;;4.20;;
10154;SDS011;5118;48.570;7.916;2023-10-09T10:35:37;15.85;;;4.97;;
10154;SDS011;5118;48.570;7.916;2023-10-09T10:38:23;13.20;;;4.35;;
10154;SDS011;5118;48.570;7.916;2023-10-09T10:41:09;16.77;;;4.57;;
10154;SDS011;5118;48.570;7.916;2023-10-09T10:43:44;11.70;;;4.10;;
10154;SDS011;5118;48.570;7.916;2023-10-09T10:46:26;12.30;;;4.07;;
10154;SDS011;5118;48.570;7.916;2023-10-09T10:49:08;14.63;;;4.07;;
10154;SDS011;5118;48.570;7.916;2023-10-09T10:51:48;16.65;;;4.40;;
10154;SDS011;5118;48.570;7.916;2023-10-09T10:54:28;16.48;;;4.28;;
10154;SDS011;5118;48.570;7.916;2023-10-09T10:57:14;15.73;;;4.28;;
10154;SDS011;5118;48.570;7.916;2023-10-09T10:59:56;11.13;;;3.85;;
10154;SDS011;5118;48.570;7.916;2023-10-09T11:02:41;14.40;;;4.60;;
10154;SDS011;5118;48.570;7.916;2023-10-09T11:05:15;11.27;;;4.10;;
10154;SDS011;5118;48.570;7.916;2023-10-09T11:07:52;18.50;;;4.65;;
10154;SDS011;5118;48.570;7.916;2023-10-09T11:10:27;17.92;;;5.25;;
10154;SDS011;5118;48.570;7.916;2023-10-09T11:12:58;17.20;;;4.55;;
10154;SDS011;5118;48.570;7.916;2023-10-09T11:15:44;17.35;;;4.90;;
10154;SDS011;5118;48.570;7.916;2023-10-09T11:18:15;14.52;;;4.60;;
10154;SDS011;5118;48.570;7.916;2023-10-09T11:20:48;15.27;;;4.78;;
10154;SDS011;5118;48.570;7.916;2023-10-09T11:23:46;14.48;;;4.05;;
10154;SDS011;5118;48.570;7.916;2023-10-09T11:26:25;13.35;;;4.00;;
10154;SDS011;5118;48.570;7.916;2023-10-09T11:31:59;15.40;;;4.45;;
10154;SDS011;5118;48.570;7.916;2023-10-09T11:34:28;15.20;;;4.78;;
10154;SDS011;5118;48.570;7.916;2023-10-09T11:37:02;17.63;;;4.38;;
10154;SDS011;5118;48.570;7.916;2023-10-09T11:39:36;17.65;;;4.93;;
10154;SDS011;5118;48.570;7.916;2023-10-09T11:42:22;11.82;;;3.80;;
10154;SDS011;5118;48.570;7.916;2023-10-09T11:45:02;11.90;;;4.20;;
10154;SDS011;5118;48.570;7.916;2023-10-09T11:47:46;15.43;;;4.25;;
10154;SDS011;5118;48.570;7.916;2023-10-09T11:50:41;15.40;;;3.40;;
10154;SDS011;5118;48.570;7.916;2023-10-09T11:53:18;14.10;;;4.18;;
10154;SDS011;5118;48.570;7.916;2023-10-09T11:56:01;18.15;;;3.97;;
10154;SDS011;5118;48.570;7.916;2023-10-09T11:58:30;15.05;;;4.65;;
10154;SDS011;5118;48.570;7.916;2023-10-09T12:00:58;13.65;;;4.13;;
10154;SDS011;5118;48.570;7.916;2023-10-09T12:03:31;16.77;;;4.55;;
10154;SDS011;5118;48.570;7.916;2023-10-09T12:06:00;12.52;;;3.97;;
10154;SDS011;5118;48.570;7.916;2023-10-09T12:08:31;13.60;;;4.15;;
10154;SDS011;5118;48.570;7.916;2023-10-09T12:11:01;16.92;;;5.30;;
10154;SDS011;5118;48.570;7.916;2023-10-09T12:13:37;17.52;;;4.72;;
10154;SDS011;5118;48.570;7.916;2023-10-09T12:16:06;13.38;;;4.22;;
10154;SDS011;5118;48.570;7.916;2023-10-09T12:18:36;20.40;;;4.90;;
10154;SDS011;5118;48.570;7.916;2023-10-09T12:21:06;16.90;;;4.10;;
10154;SDS011;5118;48.570;7.916;2023-10-09T12:23:34;15.10;;;4.70;;
10154;SDS011;5118;48.570;7.916;2023-10-09T12:26:04;17.42;;;4.75;;
10154;SDS011;5118;48.570;7.916;2023-10-09T12:28:41;19.38;;;4.75;;
10154;SDS011;5118;48.570;7.916;2023-10-09T12:31:13;14.93;;;4.75;;
10154;SDS011;5118;48.570;7.916;2023-10-09T12:33:42;17.65;;;4.13;;
10154;SDS011;5118;48.570;7.916;2023-10-09T12:36:11;12.48;;;4.40;;
10154;SDS011;5118;48.570;7.916;2023-10-09T12:38:47;17.80;;;4.60;;
10154;SDS011;5118;48.570;7.916;2023-10-09T12:41:18;13.45;;;4.15;;
10154;SDS011;5118;48.570;7.916;2023-10-09T12:43:52;20.48;;;3.90;;
10154;SDS011;5118;48.570;7.916;2023-10-09T12:46:21;17.85;;;4.55;;
10154;SDS011;5118;48.570;7.916;2023-10-09T12:48:52;16.30;;;4.32;;
10154;SDS011;5118;48.570;7.916;2023-10-09T12:51:22;15.57;;;4.53;;
10154;SDS011;5118;48.570;7.916;2023-10-09T12:53:57;11.80;;;3.85;;
10154;SDS011;5118;48.570;7.916;2023-10-09T12:56:29;15.45;;;4.13;;
10154;SDS011;5118;48.570;7.916;2023-10-09T12:59:04;14.25;;;3.72;;
10154;SDS011;5118;48.570;7.916;2023-10-09T13:01:34;12.88;;;4.45;;
10154;SDS011;5118;48.570;7.916;2023-10-09T13:04:10;19.63;;;4.15;;
10154;SDS011;5118;48.570;7.916;2023-10-09T13:06:40;14.23;;;3.85;;
10154;SDS011;5118;48.570;7.916;2023-10-09T13:09:10;14.05;;;3.67;;
10154;SDS011;5118;48.570;7.916;2023-10-09T13:11:41;14.45;;;4.05;;
10154;SDS011;5118;48.570;7.916;2023-10-09T13:14:10;17.45;;;3.55;;
10154;SDS011;5118;48.570;7.916;2023-10-09T13:16:44;17.52;;;4.10;;
10154;SDS011;5118;48.570;7.916;2023-10-09T13:19:14;17.88;;;4.18;;
10154;SDS011;5118;48.570;7.916;2023-10-09T13:21:42;14.25;;;4.13;;
10154;SDS011;5118;48.570;7.916;2023-10-09T13:24:11;16.40;;;3.92;;
10154;SDS011;5118;48.570;7.916;2023-10-09T13:26:44;14.50;;;4.28;;
10154;SDS011;5118;48.570;7.916;2023-10-09T13:29:18;18.50;;;4.22;;
10154;SDS011;5118;48.570;7.916;2023-10-09T13:31:49;15.00;;;4.20;;
10154;SDS011;5118;48.570;7.916;2023-10-09T13:34:24;20.48;;;4.15;;
10154;SDS011;5118;48.570;7.916;2023-10-09T13:36:55;13.18;;;4.43;;
10154;SDS011;5118;48.570;7.916;2023-10-09T13:39:26;17.60;;;4.60;;
10154;SDS011;5118;48.570;7.916;2023-10-09T13:41:58;17.08;;;4.80;;
10154;SDS011;5118;48.570;7.916;2023-10-09T13:44:30;12.23;;;4.25;;
10154;SDS011;5118;48.570;7.916;2023-10-09T13:47:00;12.48;;;4.13;;
10154;SDS011;5118;48.570;7.916;2023-10-09T13:49:33;15.50;;;4.57;;
10154;SDS011;5118;48.570;7.916;2023-10-09T13:52:04;17.27;;;4.10;;
10154;SDS011;5118;48.570;7.916;2023-10-09T13:54:34;15.05;;;4.38;;
10154;SDS011;5118;48.570;7.916;2023-10-09T13:57:10;17.05;;;4.28;;
10154;SDS011;5118;48.570;7.916;2023-10-09T13:59:39;15.38;;;3.90;;
10154;SDS011;5118;48.570;7.916;2023-10-09T14:02:15;17.15;;;4.78;;
10154;SDS011;5118;48.570;7.916;2023-10-09T14:04:45;16.42;;;4.47;;
10154;SDS011;5118;48.570;7.916;2023-10-09T14:07:15;18.13;;;4.38;;
10154;SDS011;5118;48.570;7.916;2023-10-09T14:09:44;13.88;;;4.63;;
10154;SDS011;5118;48.570;7.916;2023-10-09T14:12:23;20.08;;;4.40;;
10154;SDS011;5118;48.570;7.916;2023-10-09T14:14:56;21.30;;;4.45;;
10154;SDS011;5118;48.570;7.916;2023-10-09T14:17:25;17.77;;;4.43;;
10154;SDS011;5118;48.570;7.916;2023-10-09T14:19:56;14.85;;;4.40;;
10154;SDS011;5118;48.570;7.916;2023-10-09T14:22:46;13.88;;;3.58;;
10154;SDS011;5118;48.570;7.916;2023-10-09T14:25:19;17.33;;;4.40;;
10154;SDS011;5118;48.570;7.916;2023-10-09T14:27:50;11.70;;;3.85;;
10154;SDS011;5118;48.570;7.916;2023-10-09T14:30:20;16.23;;;4.63;;
10154;SDS011;5118;48.570;7.916;2023-10-09T14:32:57;14.43;;;3.97;;
10154;SDS011;5118;48.570;7.916;2023-10-09T14:35:29;13.02;;;4.28;;
10154;SDS011;5118;48.570;7.916;2023-10-09T14:38:00;17.92;;;4.35;;
10154;SDS011;5118;48.570;7.916;2023-10-09T14:40:33;19.80;;;4.75;;
10154;SDS011;5118;48.570;7.916;2023-10-09T14:43:03;14.45;;;3.95;;
10154;SDS011;5118;48.570;7.916;2023-10-09T14:45:36;8.63;;;2.60;;
10154;SDS011;5118;48.570;7.916;2023-10-09T14:48:04;11.95;;;3.08;;
10154;SDS011;5118;48.570;7.916;2023-10-09T14:50:33;18.20;;;4.78;;
10154;SDS011;5118;48.570;7.916;2023-10-09T14:53:05;12.20;;;3.75;;
10154;SDS011;5118;48.570;7.916;2023-10-09T14:55:34;13.00;;;4.00;;
10154;SDS011;5118;48.570;7.916;2023-10-09T14:58:06;11.60;;;3.47;;
10154;SDS011;5118;48.570;7.916;2023-10-09T15:00:37;12.60;;;3.55;;
10154;SDS011;5118;48.570;7.916;2023-10-09T15:03:13;14.65;;;3.05;;
10154;SDS011;5118;48.570;7.916;2023-10-09T15:05:42;11.45;;;3.30;;
10154;SDS011;5118;48.570;7.916;2023-10-09T15:08:10;13.63;;;4.10;;
10154;SDS011;5118;48.570;7.916;2023-10-09T15:10:44;10.75;;;3.33;;
10154;SDS011;5118;48.570;7.916;2023-10-09T15:13:15;13.00;;;4.15;;
10154;SDS011;5118;48.570;7.916;2023-10-09T15:15:44;11.55;;;3.67;;
10154;SDS011;5118;48.570;7.916;2023-10-09T15:18:18;13.98;;;4.18;;
10154;SDS011;5118;48.570;7.916;2023-10-09T15:20:48;16.00;;;4.65;;
10154;SDS011;5118;48.570;7.916;2023-10-09T15:23:18;14.75;;;4.22;;
10154;SDS011;5118;48.570;7.916;2023-10-09T15:25:47;14.32;;;4.53;;
10154;SDS011;5118;48.570;7.916;2023-10-09T15:28:21;15.32;;;4.40;;
10154;SDS011;5118;48.570;7.916;2023-10-09T15:30:50;17.90;;;5.78;;
10154;SDS011;5118;48.570;7.916;2023-10-09T15:33:19;15.68;;;5.15;;
10154;SDS011;5118;48.570;7.916;2023-10-09T15:35:49;14.55;;;4.15;;
10154;SDS011;5118;48.570;7.916;2023-10-09T15:38:17;21.02;;;4.97;;
10154;SDS011;5118;48.570;7.916;2023-10-09T15:40:46;30.38;;;5.47;;
10154;SDS011;5118;48.570;7.916;2023-10-09T15:43:15;17.27;;;5.57;;
10154;SDS011;5118;48.570;7.916;2023-10-09T15:45:45;13.07;;;5.05;;
10154;SDS011;5118;48.570;7.916;2023-10-09T15:48:15;14.25;;;5.18;;
10154;SDS011;5118;48.570;7.916;2023-10-09T15:50:48;11.82;;;5.38;;
10154;SDS011;5118;48.570;7.916;2023-10-09T15:53:18;15.63;;;5.13;;